Froid, Montana
Current Conditions -  °F | °C
As of 8:52 AM on Monday 26 Jan 2015 (Local Time) from KISN Reporting Station
Clear Clear  
Wind Chill:   Ceiling: Unl
Heat Index:   Visibility: 10mi
Dew Point: -1°   Wind: 5mph
Humidity: 70%   Direction: 250°WSW
Pressure: 29.96"   Gusts: NA
Location:  48.33°N, 104.5°W
Report Text: KISN 261552Z AUTO 25004KT 10SM CLR 04/M01 A2996 RMK AO2 SLP161 T00391011
Loading
Personal Weather Stations






























Interactive Weather Map New forecast layout! Learn more

10-Day Weather Forecast

Advertisements
Track Severe Weather on mobile